Time;durP1;ratioP1;P1;durP2;ratioP2;P2;SDS_P1;SDS_P2;PMS_P1;PMS_P2;Temp;Humidity;BMP_temperature;BMP_pressure;BME280_temperature;BME280_humidity;BME280_pressure;Samples;Min_cycle;Max_cycle;Signal;HPM_P1;HPM_P2
2021/09/03 00:00:10;;;;;;;5.97;5.37;;;;;;;13.32;100.00;101278.19;5131684;27;20279;-74
2021/09/03 00:02:37;;;;;;;6.97;5.83;;;;;;;13.23;100.00;101277.28;5131820;27;20182;-74
2021/09/03 00:05:05;;;;;;;6.60;6.00;;;;;;;13.14;100.00;101279.91;5131465;27;20199;-75
2021/09/03 00:07:30;;;;;;;6.47;5.60;;;;;;;12.97;100.00;101282.47;5131649;27;20180;-74
2021/09/03 00:09:55;;;;;;;7.53;6.83;;;;;;;12.91;100.00;101280.97;5131966;27;20164;-75
2021/09/03 00:12:21;;;;;;;7.47;6.87;;;;;;;12.92;100.00;101274.38;5131690;27;20259;-74
2021/09/03 00:14:46;;;;;;;6.13;5.63;;;;;;;12.89;100.00;101274.97;5131501;27;20186;-74
2021/09/03 00:17:11;;;;;;;6.40;5.90;;;;;;;12.73;100.00;101264.34;5131936;27;20167;-74
2021/09/03 00:19:37;;;;;;;7.40;6.50;;;;;;;12.70;100.00;101275.06;5131703;28;20303;-74
2021/09/03 00:22:02;;;;;;;10.37;6.37;;;;;;;12.74;100.00;101276.91;5113166;28;20160;-74
2021/09/03 00:24:28;;;;;;;6.90;6.23;;;;;;;12.77;100.00;101268.09;5131227;28;20197;-74
2021/09/03 00:26:53;;;;;;;7.03;6.33;;;;;;;12.79;100.00;101263.09;5131544;28;20204;-74
2021/09/03 00:29:18;;;;;;;8.37;6.77;;;;;;;12.75;100.00;101275.00;5131444;27;20168;-74
2021/09/03 00:31:44;;;;;;;6.73;6.03;;;;;;;12.76;100.00;101262.91;5131606;27;20639;-75
2021/09/03 00:34:10;;;;;;;6.33;5.73;;;;;;;12.74;100.00;101276.91;5131231;27;20217;-74
2021/09/03 00:36:35;;;;;;;6.53;5.93;;;;;;;12.71;100.00;101272.03;5131024;28;20194;-74
2021/09/03 00:39:00;;;;;;;7.03;6.40;;;;;;;12.72;100.00;101275.59;5135095;27;20173;-74
2021/09/03 00:41:26;;;;;;;6.20;5.70;;;;;;;12.73;100.00;101269.81;5135866;27;20179;-74
2021/09/03 00:43:51;;;;;;;8.03;6.00;;;;;;;12.78;100.00;101279.84;5135821;27;20177;-74
2021/09/03 00:46:16;;;;;;;6.00;5.50;;;;;;;12.75;100.00;101275.00;5135645;27;20200;-74
2021/09/03 00:48:42;;;;;;;7.23;5.80;;;;;;;12.69;100.00;101276.19;5135556;27;20458;-74
2021/09/03 00:51:07;;;;;;;9.70;5.70;;;;;;;12.69;100.00;101295.38;5135647;27;20229;-75
2021/09/03 00:53:35;;;;;;;7.03;6.33;;;;;;;12.70;100.00;101264.91;5135755;27;20169;-74
2021/09/03 00:56:01;;;;;;;6.63;6.00;;;;;;;12.77;100.00;101267.25;5135547;27;20177;-74
2021/09/03 00:58:27;;;;;;;6.43;5.83;;;;;;;12.79;100.00;101268.59;5135542;27;20169;-74
2021/09/03 01:00:52;;;;;;;6.50;5.90;;;;;;;12.81;100.00;101262.78;5135269;27;20681;-75
2021/09/03 01:03:18;;;;;;;7.70;5.80;;;;;;;12.78;100.00;101264.22;5135313;27;20631;-74
2021/09/03 01:05:44;;;;;;;7.27;5.70;;;;;;;12.86;100.00;101270.09;5134944;27;20204;-74
2021/09/03 01:08:09;;;;;;;6.60;6.00;;;;;;;12.78;100.00;101268.88;5135391;27;20172;-74
2021/09/03 01:10:35;;;;;;;7.47;6.77;;;;;;;12.78;100.00;101263.41;5135207;27;20168;-74
2021/09/03 01:13:01;;;;;;;11.73;7.03;;;;;;;12.68;100.00;101253.44;5135801;27;20175;-74
2021/09/03 01:15:27;;;;;;;7.67;6.93;;;;;;;12.55;100.00;101256.19;5135170;27;20249;-75
2021/09/03 01:17:52;;;;;;;8.73;6.60;;;;;;;12.70;100.00;101253.13;5135094;27;20612;-74
2021/09/03 01:20:18;;;;;;;8.67;7.83;;;;;;;12.80;100.00;101255.69;5135707;27;20231;-75
2021/09/03 01:22:43;;;;;;;7.23;6.53;;;;;;;12.87;100.00;101258.81;5135404;27;20219;-74
2021/09/03 01:25:09;;;;;;;7.87;7.03;;;;;;;12.94;100.00;101248.25;5135150;27;20193;-74
2021/09/03 01:27:35;;;;;;;9.43;7.17;;;;;;;12.97;100.00;101246.81;5135219;27;20172;-74
2021/09/03 01:30:01;;;;;;;6.47;5.93;;;;;;;13.02;100.00;101239.31;5132127;27;20188;-74
2021/09/03 01:32:26;;;;;;;8.87;7.97;;;;;;;13.04;100.00;101228.84;5099711;27;20698;-74
2021/09/03 01:34:52;;;;;;;6.60;6.00;;;;;;;13.00;100.00;101238.78;5135253;27;20549;-74
2021/09/03 01:37:17;;;;;;;9.93;6.77;;;;;;;12.93;100.00;101229.34;5135151;27;20172;-74
2021/09/03 01:39:42;;;;;;;9.10;6.40;;;;;;;12.84;100.00;101222.97;5134851;27;20177;-74
2021/09/03 01:42:08;;;;;;;6.57;6.07;;;;;;;12.78;100.00;101222.28;5135056;27;20174;-74
2021/09/03 01:44:34;;;;;;;10.53;6.47;;;;;;;12.74;100.00;101224.00;5134785;27;20691;-74
2021/09/03 01:46:59;;;;;;;6.70;5.97;;;;;;;12.74;100.00;101226.75;5116591;27;20605;-74
2021/09/03 01:49:25;;;;;;;6.93;6.23;;;;;;;12.72;100.00;101224.28;5143202;27;20188;-74
2021/09/03 01:51:50;;;;;;;6.80;6.20;;;;;;;12.74;100.00;101216.59;5138072;27;20172;-74
2021/09/03 01:54:16;;;;;;;6.47;5.87;;;;;;;12.70;100.00;101220.25;5135224;27;20632;-74
2021/09/03 01:56:42;;;;;;;6.47;5.87;;;;;;;12.64;100.00;101222.28;5134568;27;20631;-74
2021/09/03 01:59:08;;;;;;;7.27;5.97;;;;;;;12.52;100.00;101221.97;5134295;27;20221;-74
2021/09/03 02:01:34;;;;;;;6.43;5.67;;;;;;;12.45;100.00;101222.41;5134231;27;20247;-74
2021/09/03 02:03:59;;;;;;;6.60;6.00;;;;;;;12.41;100.00;101226.84;5134129;27;20271;-74
2021/09/03 02:06:24;;;;;;;6.97;6.37;;;;;;;12.34;100.00;101215.50;5134291;27;20212;-74
2021/09/03 02:08:50;;;;;;;5.87;5.37;;;;;;;12.15;100.00;101217.50;5134228;27;20176;-73
2021/09/03 02:11:15;;;;;;;8.07;6.13;;;;;;;12.10;100.00;101220.34;5134001;27;20524;-73
2021/09/03 02:13:41;;;;;;;6.63;6.00;;;;;;;12.12;100.00;101223.59;5133992;27;20172;-73
2021/09/03 02:16:06;;;;;;;6.17;5.57;;;;;;;12.07;100.00;101212.72;5133988;27;20179;-74
2021/09/03 02:18:32;;;;;;;9.90;6.10;;;;;;;12.05;100.00;101212.22;5133961;27;20177;-74
2021/09/03 02:20:58;;;;;;;6.93;6.23;;;;;;;11.94;100.00;101211.59;5133731;27;20529;-74
2021/09/03 02:23:24;;;;;;;6.13;5.50;;;;;;;11.85;100.00;101211.47;5133807;27;20195;-74
2021/09/03 02:25:49;;;;;;;6.90;6.20;;;;;;;11.72;100.00;101209.50;5133495;27;20232;-73
2021/09/03 02:28:15;;;;;;;7.00;6.37;;;;;;;11.72;100.00;101212.25;5115236;27;20392;-73
2021/09/03 02:30:43;;;;;;;7.50;6.23;;;;;;;11.81;100.00;101207.72;5133649;27;20165;-75
2021/09/03 02:33:09;;;;;;;7.97;7.07;;;;;;;11.87;100.00;101212.00;5133637;27;20545;-73
2021/09/03 02:35:34;;;;;;;6.23;5.73;;;;;;;11.90;100.00;101214.13;5133509;27;20180;-73
2021/09/03 02:38:00;;;;;;;8.30;7.47;;;;;;;11.98;100.00;101211.78;5133359;27;20557;-74
2021/09/03 02:40:27;;;;;;;7.73;6.63;;;;;;;11.96;100.00;101209.38;5133266;27;20752;-74
2021/09/03 02:42:53;;;;;;;8.00;6.70;;;;;;;11.89;100.00;101207.03;5133406;27;20188;-74
2021/09/03 02:45:18;;;;;;;7.73;7.03;;;;;;;11.83;100.00;101205.47;5133170;27;20256;-74
2021/09/03 02:47:43;;;;;;;7.03;6.17;;;;;;;11.81;100.00;101196.75;5133360;27;20177;-74
2021/09/03 02:50:09;;;;;;;7.23;6.63;;;;;;;11.79;100.00;101207.19;5133286;27;20205;-74
2021/09/03 02:52:34;;;;;;;7.07;6.17;;;;;;;11.80;100.00;101205.28;5133213;27;20169;-74
2021/09/03 02:55:00;;;;;;;7.07;6.37;;;;;;;11.84;100.00;101204.38;5133060;27;20748;-74
2021/09/03 02:57:25;;;;;;;7.47;6.53;;;;;;;11.88;100.00;101210.06;5133131;27;20180;-73
2021/09/03 02:59:52;;;;;;;6.97;6.27;;;;;;;11.84;100.00;101206.28;5132995;27;20179;-73
2021/09/03 03:02:17;;;;;;;9.13;6.47;;;;;;;11.75;100.00;101202.59;5132959;27;20624;-73
2021/09/03 03:04:42;;;;;;;7.37;6.67;;;;;;;11.67;100.00;101195.88;5132622;27;20192;-74
2021/09/03 03:07:08;;;;;;;7.20;6.53;;;;;;;11.68;100.00;101197.50;5132716;27;20678;-74
2021/09/03 03:09:33;;;;;;;8.23;7.43;;;;;;;11.72;100.00;101187.59;5132905;27;20169;-74
2021/09/03 03:11:58;;;;;;;7.87;7.07;;;;;;;11.76;100.00;101190.53;5132733;27;20175;-74
2021/09/03 03:14:27;;;;;;;8.00;7.20;;;;;;;11.76;100.00;101182.31;5132688;27;20176;-74
2021/09/03 03:16:56;;;;;;;8.10;6.83;;;;;;;11.61;100.00;101181.47;5132746;27;20256;-74
2021/09/03 03:19:23;;;;;;;8.23;7.37;;;;;;;11.47;100.00;101174.34;5132555;27;20652;-74
2021/09/03 03:21:48;;;;;;;7.07;6.37;;;;;;;11.37;100.00;101174.50;5132662;27;20188;-74
2021/09/03 03:24:14;;;;;;;7.83;7.00;;;;;;;11.41;100.00;101167.31;5132666;27;20173;-74
2021/09/03 03:26:39;;;;;;;11.17;8.63;;;;;;;11.43;100.00;101170.56;5132909;27;20223;-75
2021/09/03 03:29:05;;;;;;;7.73;6.93;;;;;;;11.51;100.00;101175.34;5133015;27;20200;-74
2021/09/03 03:31:32;;;;;;;7.77;7.07;;;;;;;11.51;100.00;101164.41;5114140;27;20547;-74
2021/09/03 03:33:58;;;;;;;9.30;8.40;;;;;;;11.54;100.00;101172.03;5132315;27;20207;-74
2021/09/03 03:36:23;;;;;;;9.57;8.50;;;;;;;11.61;100.00;101170.53;5132192;27;20168;-74
2021/09/03 03:38:49;;;;;;;12.00;8.13;;;;;;;11.60;100.00;101154.41;5132249;27;20187;-74
2021/09/03 03:41:14;;;;;;;8.80;7.87;;;;;;;11.63;100.00;101157.34;5132120;27;20173;-74
2021/09/03 03:43:39;;;;;;;8.00;6.97;;;;;;;11.64;100.00;101152.69;5131618;27;20175;-74
2021/09/03 03:46:05;;;;;;;8.07;7.37;;;;;;;11.60;100.00;101149.75;5131974;27;20236;-74
2021/09/03 03:48:30;;;;;;;9.30;7.43;;;;;;;11.53;100.00;101145.78;5113454;27;20169;-74
2021/09/03 03:50:56;;;;;;;6.67;6.07;;;;;;;11.44;100.00;101142.94;5131914;27;20644;-74
2021/09/03 03:53:21;;;;;;;8.07;7.13;;;;;;;11.22;100.00;101140.00;5131863;27;20662;-74
2021/09/03 03:55:46;;;;;;;10.13;6.63;;;;;;;11.06;100.00;101141.34;5131692;27;20215;-74
2021/09/03 03:58:12;;;;;;;10.23;6.90;;;;;;;10.94;100.00;101155.47;5131796;27;20574;-74
2021/09/03 04:00:37;;;;;;;7.20;6.60;;;;;;;10.90;100.00;101146.25;5131891;27;20254;-74
2021/09/03 04:03:02;;;;;;;7.47;6.67;;;;;;;10.85;100.00;101138.09;5131840;27;20173;-74
2021/09/03 04:05:28;;;;;;;8.90;7.90;;;;;;;10.77;100.00;101138.78;5131393;27;20569;-74
2021/09/03 04:07:53;;;;;;;7.23;6.53;;;;;;;10.84;100.00;101147.41;5132126;27;20711;-74
2021/09/03 04:10:18;;;;;;;8.70;7.63;;;;;;;10.89;100.00;101144.63;5113627;27;20658;-74
2021/09/03 04:12:44;;;;;;;9.13;8.03;;;;;;;10.84;100.00;101144.69;5131319;27;20176;-74
2021/09/03 04:15:10;;;;;;;10.83;8.93;;;;;;;10.79;100.00;101153.78;5112982;28;20172;-75
2021/09/03 04:17:35;;;;;;;8.40;7.60;;;;;;;10.75;100.00;101149.22;5131757;27;20180;-74
2021/09/03 04:20:00;;;;;;;8.30;7.43;;;;;;;10.97;100.00;101152.16;5131624;28;20177;-74
2021/09/03 04:22:26;;;;;;;8.73;7.83;;;;;;;11.03;100.00;101145.50;5131659;28;20515;-74
2021/09/03 04:24:51;;;;;;;8.43;7.73;;;;;;;11.02;100.00;101146.63;5131469;28;20164;-74
2021/09/03 04:27:16;;;;;;;7.97;7.17;;;;;;;10.90;100.00;101143.50;5131702;28;20217;-74
2021/09/03 04:29:44;;;;;;;7.57;6.87;;;;;;;10.75;100.00;101143.75;5131712;28;20213;-74
2021/09/03 04:32:10;;;;;;;8.20;7.30;;;;;;;10.79;100.00;101133.84;5131601;28;20251;-74
2021/09/03 04:34:35;;;;;;;9.17;8.13;;;;;;;10.93;100.00;101137.44;5131322;28;20287;-74
2021/09/03 04:37:00;;;;;;;9.17;8.27;;;;;;;10.93;100.00;101145.66;5131231;28;20681;-74
2021/09/03 04:39:26;;;;;;;9.93;7.93;;;;;;;10.88;100.00;101141.09;5113001;28;20180;-75
2021/09/03 04:41:51;;;;;;;8.27;7.47;;;;;;;10.69;100.00;101132.84;5131383;28;20175;-75
2021/09/03 04:44:16;;;;;;;9.77;8.60;;;;;;;10.60;100.00;101142.03;5112846;28;20662;-74
2021/09/03 04:46:42;;;;;;;8.70;7.90;;;;;;;10.76;100.00;101143.44;5131362;28;20283;-75
2021/09/03 04:49:07;;;;;;;8.43;7.63;;;;;;;10.96;100.00;101147.78;5131740;28;20365;-75
2021/09/03 04:51:32;;;;;;;9.87;8.13;;;;;;;11.11;100.00;101147.56;5131477;28;20164;-74
2021/09/03 04:53:58;;;;;;;8.00;7.30;;;;;;;11.14;100.00;101148.88;5131476;28;20176;-75
2021/09/03 04:56:23;;;;;;;8.90;8.10;;;;;;;10.99;100.00;101147.19;5112931;28;20651;-74
2021/09/03 04:58:48;;;;;;;8.80;7.73;;;;;;;10.63;100.00;101144.16;5131368;28;20178;-75
2021/09/03 05:01:14;;;;;;;9.33;8.43;;;;;;;10.69;100.00;101146.53;5112906;28;20623;-75
2021/09/03 05:03:39;;;;;;;8.93;8.03;;;;;;;10.82;100.00;101142.25;5130982;28;20206;-74
2021/09/03 05:06:04;;;;;;;12.23;8.90;;;;;;;10.86;100.00;101148.78;5131176;28;20207;-74
2021/09/03 05:08:30;;;;;;;9.20;8.43;;;;;;;10.67;100.00;101135.09;5131340;28;20667;-74
2021/09/03 05:10:55;;;;;;;8.80;8.07;;;;;;;10.69;100.00;101141.06;5131440;28;20659;-75
2021/09/03 05:13:20;;;;;;;9.10;7.50;;;;;;;10.90;100.00;101133.41;5131180;28;20628;-75
2021/09/03 05:15:46;;;;;;;9.20;8.40;;;;;;;10.90;100.00;101138.06;5130917;28;20184;-78
2021/09/03 05:18:11;;;;;;;9.00;8.10;;;;;;;11.14;100.00;101146.13;5112838;28;20172;-78
2021/09/03 05:20:37;;;;;;;7.73;7.13;;;;;;;11.29;100.00;101140.44;5131203;28;20249;-78
2021/09/03 05:23:02;;;;;;;8.10;7.23;;;;;;;11.43;100.00;101140.47;5131994;28;20296;-77
2021/09/03 05:25:28;;;;;;;7.33;6.73;;;;;;;11.51;100.00;101137.06;5133103;27;20204;-77
2021/09/03 05:27:53;;;;;;;7.23;6.63;;;;;;;11.59;100.00;101128.97;5135668;27;20196;-76
2021/09/03 05:30:19;;;;;;;6.83;6.27;;;;;;;11.63;100.00;101134.66;5134569;27;20176;-76
2021/09/03 05:32:44;;;;;;;6.97;6.47;;;;;;;11.71;100.00;101133.13;5134709;27;20176;-75
2021/09/03 05:35:10;;;;;;;7.53;6.87;;;;;;;11.77;100.00;101138.22;5134441;27;20176;-74
2021/09/03 05:37:36;;;;;;;7.50;6.90;;;;;;;11.76;100.00;101141.25;5134653;27;20165;-75
2021/09/03 05:40:04;;;;;;;8.00;7.27;;;;;;;11.54;100.00;101125.50;5134514;27;20177;-77
2021/09/03 05:42:30;;;;;;;8.03;7.33;;;;;;;11.29;100.00;101135.78;5134588;27;20572;-75
2021/09/03 05:44:55;;;;;;;9.47;8.67;;;;;;;11.29;100.00;101132.25;5134754;27;20309;-71
2021/09/03 05:47:20;;;;;;;8.63;7.93;;;;;;;11.49;100.00;101134.63;5134795;27;20184;-75
2021/09/03 05:49:46;;;;;;;8.87;8.03;;;;;;;11.44;100.00;101133.91;5134285;27;20199;-75
2021/09/03 05:52:11;;;;;;;9.87;9.07;;;;;;;11.32;100.00;101134.38;5134593;27;20188;-75
2021/09/03 05:54:36;;;;;;;8.63;7.83;;;;;;;11.47;100.00;101128.63;5135552;27;20615;-75
2021/09/03 05:57:04;;;;;;;8.33;7.67;;;;;;;11.69;100.00;101141.63;5115684;27;20219;-76
2021/09/03 05:59:29;;;;;;;8.17;7.47;;;;;;;11.65;100.00;101137.88;5134076;27;20172;-75
2021/09/03 06:01:55;;;;;;;7.47;6.87;;;;;;;11.44;100.00;101145.66;5134184;27;20200;-74
2021/09/03 06:04:20;;;;;;;8.57;7.80;;;;;;;11.44;100.00;101133.91;5115310;27;20192;-75
2021/09/03 06:06:45;;;;;;;8.00;7.30;;;;;;;11.63;100.00;101129.19;5133997;27;20569;-77
2021/09/03 06:09:10;;;;;;;8.23;7.53;;;;;;;11.72;100.00;101141.06;5134010;27;20591;-73
2021/09/03 06:11:36;;;;;;;8.57;7.87;;;;;;;11.87;100.00;101140.00;5134082;27;20581;-73
2021/09/03 06:14:01;;;;;;;9.10;8.20;;;;;;;11.81;100.00;101143.94;5133470;27;20687;-73
2021/09/03 06:16:27;;;;;;;9.60;8.67;;;;;;;11.87;100.00;101143.53;5134105;27;20373;-73
2021/09/03 06:18:52;;;;;;;9.00;8.30;;;;;;;11.93;100.00;101136.03;5133763;27;20195;-73
2021/09/03 06:21:18;;;;;;;9.70;8.90;;;;;;;12.09;100.00;101136.53;5133706;27;20240;-73
2021/09/03 06:23:43;;;;;;;9.03;8.20;;;;;;;12.20;100.00;101135.22;5133716;27;20180;-73
2021/09/03 06:26:09;;;;;;;12.77;11.57;;;;;;;12.31;100.00;101130.34;5133758;27;20658;-73
2021/09/03 06:28:35;;;;;;;17.90;13.73;;;;;;;12.60;100.00;101128.06;5133874;27;20176;-74
2021/09/03 06:31:00;;;;;;;16.27;13.30;;;;;;;12.72;100.00;101127.53;5133611;27;20169;-73
2021/09/03 06:33:26;;;;;;;15.93;14.33;;;;;;;12.85;100.00;101126.66;5133691;27;20169;-73
2021/09/03 06:35:51;;;;;;;13.83;11.43;;;;;;;12.88;100.00;101128.81;5133432;27;20251;-73
2021/09/03 06:38:17;;;;;;;11.87;10.23;;;;;;;12.90;100.00;101123.81;5133360;27;20172;-73
2021/09/03 06:40:42;;;;;;;12.03;10.90;;;;;;;12.97;100.00;101120.63;5133801;27;20257;-73
2021/09/03 06:43:07;;;;;;;12.63;11.37;;;;;;;12.96;100.00;101124.50;5129466;27;20196;-74
2021/09/03 06:45:33;;;;;;;11.07;9.97;;;;;;;12.99;100.00;101127.44;5133377;27;20566;-75
2021/09/03 06:47:58;;;;;;;12.23;11.10;;;;;;;13.15;100.00;101122.38;5133570;27;20176;-75
2021/09/03 06:50:24;;;;;;;14.40;11.20;;;;;;;13.19;100.00;101115.19;5115052;27;20173;-74
2021/09/03 06:52:49;;;;;;;11.07;9.97;;;;;;;13.30;100.00;101115.72;5133541;27;20176;-73
2021/09/03 06:55:15;;;;;;;11.73;10.60;;;;;;;13.36;100.00;101120.78;5115072;27;20183;-73
2021/09/03 06:57:42;;;;;;;21.23;11.20;;;;;;;13.37;100.00;101114.19;5133838;27;20169;-73
2021/09/03 07:00:08;;;;;;;12.43;10.77;;;;;;;13.51;100.00;101114.09;5133671;27;20175;-74
2021/09/03 07:02:34;;;;;;;15.50;13.80;;;;;;;13.72;100.00;101119.84;5134100;27;20510;-75
2021/09/03 07:04:59;;;;;;;12.97;11.57;;;;;;;13.87;100.00;101124.94;5133025;27;20222;-75
2021/09/03 07:07:25;;;;;;;13.57;12.17;;;;;;;13.93;100.00;101126.44;5133448;27;20229;-74
2021/09/03 07:09:50;;;;;;;10.97;9.97;;;;;;;13.95;100.00;101132.41;5133154;27;20226;-74
2021/09/03 07:12:16;;;;;;;9.87;9.03;;;;;;;13.93;100.00;101125.63;5132926;27;20214;-74
2021/09/03 07:14:41;;;;;;;10.53;9.53;;;;;;;13.81;100.00;101130.91;5130346;27;20176;-75
2021/09/03 07:17:07;;;;;;;9.67;8.70;;;;;;;13.75;100.00;101121.19;5125287;27;20184;-75
2021/09/03 07:19:36;;;;;;;10.93;9.93;;;;;;;13.74;100.00;101125.03;5132510;27;20176;-75
2021/09/03 07:22:03;;;;;;;10.30;9.40;;;;;;;13.74;100.00;101125.03;5132642;27;20188;-75
2021/09/03 07:24:29;;;;;;;11.40;10.23;;;;;;;13.76;100.00;101126.34;5132666;27;20179;-74
2021/09/03 07:26:54;;;;;;;9.33;8.53;;;;;;;13.75;100.00;101122.00;5132581;27;20340;-75
2021/09/03 07:29:20;;;;;;;11.37;10.27;;;;;;;13.76;100.00;101123.59;5132402;27;20263;-74
2021/09/03 07:31:45;;;;;;;10.27;9.37;;;;;;;13.54;100.00;101121.72;5132550;27;20168;-75
2021/09/03 07:34:11;;;;;;;10.03;9.13;;;;;;;13.46;100.00;101124.41;5132278;27;20173;-74
2021/09/03 07:36:36;;;;;;;10.57;9.67;;;;;;;13.43;100.00;101122.28;5132085;27;20206;-74
2021/09/03 07:39:02;;;;;;;9.07;8.27;;;;;;;13.45;100.00;101123.59;5132030;27;20176;-74
2021/09/03 07:41:28;;;;;;;12.00;10.90;;;;;;;13.52;100.00;101126.69;5129192;27;20228;-74
2021/09/03 07:43:53;;;;;;;12.40;10.87;;;;;;;13.51;100.00;101116.84;5131789;27;20177;-74
2021/09/03 07:46:18;;;;;;;11.77;10.67;;;;;;;13.60;100.00;101125.97;5131842;27;20667;-75
2021/09/03 07:48:44;;;;;;;11.10;10.00;;;;;;;13.56;100.00;101113.16;5131188;27;20669;-74
2021/09/03 07:51:09;;;;;;;10.33;9.43;;;;;;;13.61;100.00;101116.59;5131100;27;20180;-75
2021/09/03 07:53:34;;;;;;;13.30;12.00;;;;;;;13.73;100.00;101113.22;5131342;27;20239;-74
2021/09/03 07:56:00;;;;;;;13.00;11.70;;;;;;;13.82;100.00;101105.03;5131759;27;20203;-75
2021/09/03 07:58:25;;;;;;;13.10;12.00;;;;;;;13.92;100.00;101113.00;5131614;27;20679;-75
2021/09/03 08:00:51;;;;;;;19.30;13.77;;;;;;;14.08;100.00;101110.63;5131870;27;20179;-74
2021/09/03 08:03:16;;;;;;;13.97;12.73;;;;;;;14.28;100.00;101112.78;5131596;27;20275;-74
2021/09/03 08:05:42;;;;;;;18.70;14.67;;;;;;;14.47;100.00;101121.63;5131270;27;20214;-74
2021/09/03 08:08:08;;;;;;;18.43;15.67;;;;;;;14.62;100.00;101114.84;5131051;27;20212;-74
2021/09/03 08:10:35;;;;;;;18.70;15.60;;;;;;;14.76;100.00;101106.44;5131384;27;20238;-75
2021/09/03 08:13:04;;;;;;;16.93;15.10;;;;;;;14.93;100.00;101109.19;5131379;27;20664;-74
2021/09/03 08:15:30;;;;;;;17.57;14.70;;;;;;;15.07;100.00;101109.00;5131322;27;20208;-74
2021/09/03 08:17:56;;;;;;;19.63;14.13;;;;;;;15.21;100.00;101106.91;5131814;27;20176;-75
2021/09/03 08:20:21;;;;;;;14.93;13.53;;;;;;;15.30;100.00;101104.09;5131332;28;20179;-75
2021/09/03 08:22:48;;;;;;;15.63;14.03;;;;;;;15.40;100.00;101112.03;5131326;28;20255;-74
2021/09/03 08:25:14;;;;;;;15.73;13.43;;;;;;;15.48;100.00;101100.19;5131110;27;20221;-74
2021/09/03 08:27:40;;;;;;;14.43;13.03;;;;;;;15.58;100.00;101101.78;5131570;28;20192;-74
2021/09/03 08:30:07;;;;;;;17.13;13.23;;;;;;;15.60;100.00;101097.56;5131655;28;20591;-75
2021/09/03 08:32:32;;;;;;;16.67;14.57;;;;;;;15.69;100.00;101100.31;5131216;28;20179;-74
2021/09/03 08:34:58;;;;;;;15.13;13.43;;;;;;;15.74;100.00;101100.13;5130986;27;20537;-75
2021/09/03 08:37:24;;;;;;;12.27;11.10;;;;;;;15.90;100.00;101106.69;5131252;27;20226;-75
2021/09/03 08:39:50;;;;;;;14.93;13.23;;;;;;;15.98;100.00;101092.09;5131458;28;20219;-74
2021/09/03 08:42:15;;;;;;;15.73;14.03;;;;;;;16.00;100.00;101095.31;5131338;27;20647;-74
2021/09/03 08:44:41;;;;;;;16.83;13.47;;;;;;;16.10;100.00;101105.16;5130753;27;20248;-74
2021/09/03 08:47:09;;;;;;;15.30;13.70;;;;;;;16.24;100.00;101096.66;5131457;28;20211;-75
2021/09/03 08:49:34;;;;;;;13.90;12.60;;;;;;;16.41;100.00;101099.28;5126137;27;20192;-74
2021/09/03 08:52:00;;;;;;;18.00;12.50;;;;;;;16.53;100.00;101102.13;5115418;28;20172;-74
2021/09/03 08:54:25;;;;;;;13.20;11.80;;;;;;;16.59;100.00;101091.69;5125845;27;20273;-75
2021/09/03 08:56:50;;;;;;;12.17;10.97;;;;;;;16.70;100.00;101108.69;5125850;28;20184;-75
2021/09/03 08:59:16;;;;;;;12.20;11.00;;;;;;;16.75;100.00;101101.03;5128489;27;20184;-74
2021/09/03 09:01:41;;;;;;;12.90;10.50;;;;;;;16.77;100.00;101107.00;5133707;27;20208;-74
2021/09/03 09:04:17;;;;;;;13.57;11.77;;;;;;;16.86;100.00;101101.44;5134255;27;20176;-74
2021/09/03 09:07:01;;;;;;;16.03;12.10;;;;;;;16.71;100.00;101088.25;5134932;27;20203;-75
2021/09/03 09:09:32;;;;;;;12.23;11.13;;;;;;;16.86;100.00;101093.16;5134638;27;20639;-75
2021/09/03 09:12:02;;;;;;;12.27;11.07;;;;;;;16.89;100.00;101192.63;5129859;27;20636;-74
2021/09/03 09:14:28;;;;;;;11.30;10.40;;;;;;;17.08;100.00;101136.97;5130848;27;20192;-74
2021/09/03 09:17:01;;;;;;;13.17;11.87;;;;;;;16.99;100.00;101103.09;5134106;27;20178;-75
2021/09/03 09:19:26;;;;;;;14.57;11.03;;;;;;;16.95;100.00;101093.88;5133213;27;20173;-74
2021/09/03 09:21:57;;;;;;;13.67;10.07;;;;;;;17.26;100.00;101096.19;5130671;27;20187;-74
2021/09/03 09:24:22;;;;;;;13.03;10.53;;;;;;;17.32;100.00;101083.75;5131897;27;20248;-74
2021/09/03 09:26:58;;;;;;;12.90;11.80;;;;;;;17.57;100.00;101081.06;5116077;27;20294;-75
2021/09/03 09:29:25;;;;;;;14.27;10.60;;;;;;;17.73;100.00;101085.59;5134163;27;20180;-74
2021/09/03 09:31:56;;;;;;;11.13;10.00;;;;;;;17.73;100.00;101093.91;5134388;27;20173;-75
2021/09/03 09:34:31;;;;;;;12.10;10.20;;;;;;;17.91;100.00;101088.94;5134465;27;20623;-75
2021/09/03 09:37:00;;;;;;;10.60;9.67;;;;;;;17.95;100.00;101086.31;5134370;27;20274;-75
2021/09/03 09:39:25;;;;;;;12.73;11.40;;;;;;;17.80;100.00;101088.63;5133899;27;20541;-75
2021/09/03 09:42:03;;;;;;;12.17;11.07;;;;;;;17.96;100.00;101072.16;5115406;27;20267;-74
2021/09/03 09:44:33;;;;;;;11.23;10.27;;;;;;;18.10;100.00;101072.59;5134052;27;20171;-75
2021/09/03 09:47:12;;;;;;;15.60;10.90;;;;;;;18.18;100.00;101070.84;5134462;27;20245;-74
2021/09/03 09:49:37;;;;;;;11.90;10.10;;;;;;;18.33;100.00;101072.91;5134400;27;20169;-74
2021/09/03 09:52:04;;;;;;;10.93;9.83;;;;;;;18.20;100.00;101063.00;5134122;27;20247;-74
2021/09/03 09:54:30;;;;;;;11.60;10.60;;;;;;;18.28;100.00;101062.09;5133459;27;20183;-75
2021/09/03 09:57:00;;;;;;;12.50;11.17;;;;;;;18.18;100.00;101059.78;5133889;27;20169;-75
2021/09/03 09:59:28;;;;;;;13.60;12.03;;;;;;;18.38;100.00;101058.84;5133886;27;20176;-75
2021/09/03 10:01:56;;;;;;;14.80;12.70;;;;;;;18.34;100.00;101060.69;5133807;27;20165;-75
2021/09/03 10:04:24;;;;;;;13.87;12.53;;;;;;;18.22;100.00;101054.38;5133531;27;20176;-75
2021/09/03 10:06:52;;;;;;;13.33;12.17;;;;;;;18.37;100.00;101061.94;5133544;27;20204;-74
2021/09/03 10:09:22;;;;;;;13.60;12.30;;;;;;;18.54;100.00;101064.47;5133458;27;20650;-74
2021/09/03 10:11:50;;;;;;;16.30;12.63;;;;;;;18.51;98.99;101056.03;5133005;27;20186;-75
2021/09/03 10:14:20;;;;;;;13.13;12.00;;;;;;;18.62;98.35;101057.16;5133347;27;20560;-74
2021/09/03 10:16:47;;;;;;;14.90;13.60;;;;;;;18.65;97.68;101057.28;5133376;27;20619;-74
2021/09/03 10:19:16;;;;;;;12.77;11.67;;;;;;;18.77;96.92;101050.91;5132902;27;20176;-75
2021/09/03 10:21:41;;;;;;;13.40;12.10;;;;;;;18.86;97.06;101051.56;5134635;27;20542;-74
2021/09/03 10:24:14;;;;;;;11.07;9.97;;;;;;;19.00;91.84;101051.97;5139128;27;20183;-75
2021/09/03 10:26:47;;;;;;;11.00;10.00;;;;;;;18.94;91.85;101052.56;5134438;27;20211;-85
2021/09/03 10:29:18;;;;;;;11.93;10.17;;;;;;;19.14;92.92;101051.56;5133786;27;20179;-74
2021/09/03 10:32:05;;;;;;;14.50;10.40;;;;;;;19.25;92.21;101044.34;5133552;27;20169;-74
2021/09/03 10:34:42;;;;;;;9.03;8.23;;;;;;;19.40;90.98;101045.53;5133230;27;20164;-75
2021/09/03 10:37:14;;;;;;;9.77;7.70;;;;;;;19.48;87.00;101033.44;5133685;27;20225;-75
2021/09/03 10:39:53;;;;;;;9.13;8.20;;;;;;;19.54;88.66;101029.28;5131222;27;20177;-75
2021/09/03 10:42:53;;;;;;;9.63;8.77;;;;;;;19.46;85.37;101021.91;5130618;27;20176;-75
2021/09/03 10:45:22;;;;;;;8.23;6.90;;;;;;;19.55;83.86;101011.50;5129657;27;20694;-74
2021/09/03 10:48:07;;;;;;;10.50;7.77;;;;;;;19.58;83.86;101016.31;5132965;27;20635;-74
2021/09/03 10:50:55;;;;;;;8.93;8.03;;;;;;;19.55;85.42;101019.00;5133266;27;20681;-75
2021/09/03 10:53:31;;;;;;;9.37;8.50;;;;;;;19.63;85.34;101012.47;5133183;27;20608;-75
2021/09/03 10:56:07;;;;;;;9.80;8.13;;;;;;;19.73;86.97;101008.34;5133082;27;20168;-75
2021/09/03 10:58:50;;;;;;;8.53;7.73;;;;;;;19.82;85.08;101001.47;5133005;27;20588;-75
2021/09/03 11:01:16;;;;;;;7.57;6.90;;;;;;;19.86;83.56;101004.31;5129398;27;20643;-74
2021/09/03 11:03:51;;;;;;;10.37;7.57;;;;;;;19.87;82.93;101000.38;5124168;27;20184;-75
2021/09/03 11:06:25;;;;;;;7.13;6.50;;;;;;;19.84;84.19;100993.56;5132599;27;20264;-75
2021/09/03 11:08:53;;;;;;;8.00;7.27;;;;;;;20.01;83.73;100991.56;5132769;27;20252;-75